sensor_id;sensor_type;location;lat;lon;timestamp;temperature;humidity
46732;DHT22;32477;51.474;5.696;2023-02-24T00:02:10;2.90;99.90
46732;DHT22;32477;51.474;5.696;2023-02-24T00:04:37;2.80;99.90
46732;DHT22;32477;51.474;5.696;2023-02-24T00:07:04;2.80;99.90
46732;DHT22;32477;51.474;5.696;2023-02-24T00:09:31;2.80;99.90
46732;DHT22;32477;51.474;5.696;2023-02-24T00:12:02;2.60;99.90
46732;DHT22;32477;51.474;5.696;2023-02-24T00:14:31;2.60;99.90
46732;DHT22;32477;51.474;5.696;2023-02-24T00:16:57;2.50;99.90
46732;DHT22;32477;51.474;5.696;2023-02-24T00:19:24;2.40;99.90
46732;DHT22;32477;51.474;5.696;2023-02-24T00:21:51;2.40;99.90
46732;DHT22;32477;51.474;5.696;2023-02-24T00:24:19;2.40;99.90
46732;DHT22;32477;51.474;5.696;2023-02-24T00:26:45;2.30;99.90
46732;DHT22;32477;51.474;5.696;2023-02-24T00:29:12;2.30;99.90
46732;DHT22;32477;51.474;5.696;2023-02-24T00:31:38;2.30;99.90
46732;DHT22;32477;51.474;5.696;2023-02-24T00:34:06;2.20;99.90
46732;DHT22;32477;51.474;5.696;2023-02-24T00:36:32;2.10;99.90
46732;DHT22;32477;51.474;5.696;2023-02-24T00:39:07;2.10;99.90
46732;DHT22;32477;51.474;5.696;2023-02-24T00:41:40;2.20;99.90
46732;DHT22;32477;51.474;5.696;2023-02-24T00:44:09;2.20;99.90
46732;DHT22;32477;51.474;5.696;2023-02-24T00:46:36;2.30;99.90
46732;DHT22;32477;51.474;5.696;2023-02-24T00:49:04;2.40;99.90
46732;DHT22;32477;51.474;5.696;2023-02-24T00:51:35;2.70;99.90
46732;DHT22;32477;51.474;5.696;2023-02-24T00:54:02;2.80;99.90
46732;DHT22;32477;51.474;5.696;2023-02-24T00:56:29;2.90;99.90
46732;DHT22;32477;51.474;5.696;2023-02-24T00:58:56;3.00;99.90
46732;DHT22;32477;51.474;5.696;2023-02-24T01:01:25;3.00;99.90
46732;DHT22;32477;51.474;5.696;2023-02-24T01:03:53;3.00;99.90
46732;DHT22;32477;51.474;5.696;2023-02-24T01:06:23;3.10;99.90
46732;DHT22;32477;51.474;5.696;2023-02-24T01:08:52;3.10;99.90
46732;DHT22;32477;51.474;5.696;2023-02-24T01:11:21;3.20;99.90
46732;DHT22;32477;51.474;5.696;2023-02-24T01:14:15;3.30;99.90
46732;DHT22;32477;51.474;5.696;2023-02-24T01:16:42;3.40;99.90
46732;DHT22;32477;51.474;5.696;2023-02-24T01:19:09;3.50;99.90
46732;DHT22;32477;51.474;5.696;2023-02-24T01:21:36;3.60;99.90
46732;DHT22;32477;51.474;5.696;2023-02-24T01:24:02;3.60;99.90
46732;DHT22;32477;51.474;5.696;2023-02-24T01:26:28;3.60;99.90
46732;DHT22;32477;51.474;5.696;2023-02-24T01:28:55;3.70;99.90
46732;DHT22;32477;51.474;5.696;2023-02-24T01:31:21;3.70;99.90
46732;DHT22;32477;51.474;5.696;2023-02-24T01:33:48;3.70;99.90
46732;DHT22;32477;51.474;5.696;2023-02-24T01:36:18;3.70;99.90
46732;DHT22;32477;51.474;5.696;2023-02-24T01:38:44;3.70;99.90
46732;DHT22;32477;51.474;5.696;2023-02-24T01:41:16;3.80;99.90
46732;DHT22;32477;51.474;5.696;2023-02-24T01:46:38;3.70;99.90
46732;DHT22;32477;51.474;5.696;2023-02-24T01:49:22;3.80;99.90
46732;DHT22;32477;51.474;5.696;2023-02-24T01:54:31;3.70;99.90
46732;DHT22;32477;51.474;5.696;2023-02-24T01:56:57;3.80;99.90
46732;DHT22;32477;51.474;5.696;2023-02-24T01:59:27;3.80;99.90
46732;DHT22;32477;51.474;5.696;2023-02-24T02:01:56;3.80;99.90
46732;DHT22;32477;51.474;5.696;2023-02-24T02:04:51;3.80;99.90
46732;DHT22;32477;51.474;5.696;2023-02-24T02:07:20;3.80;99.90
46732;DHT22;32477;51.474;5.696;2023-02-24T02:09:47;3.80;99.90
46732;DHT22;32477;51.474;5.696;2023-02-24T02:12:14;3.80;99.90
46732;DHT22;32477;51.474;5.696;2023-02-24T02:14:46;3.80;99.90
46732;DHT22;32477;51.474;5.696;2023-02-24T02:20:27;3.80;99.90
46732;DHT22;32477;51.474;5.696;2023-02-24T02:23:16;3.80;99.90
46732;DHT22;32477;51.474;5.696;2023-02-24T02:31:28;3.80;99.90
46732;DHT22;32477;51.474;5.696;2023-02-24T02:40:08;3.80;99.90
46732;DHT22;32477;51.474;5.696;2023-02-24T02:43:02;3.80;99.90
46732;DHT22;32477;51.474;5.696;2023-02-24T02:45:33;3.80;99.90
46732;DHT22;32477;51.474;5.696;2023-02-24T02:48:06;3.80;99.90
46732;DHT22;32477;51.474;5.696;2023-02-24T02:50:44;3.80;99.90
46732;DHT22;32477;51.474;5.696;2023-02-24T02:53:18;3.90;99.90
46732;DHT22;32477;51.474;5.696;2023-02-24T02:56:19;3.90;99.90
46732;DHT22;32477;51.474;5.696;2023-02-24T02:58:48;3.90;99.90
46732;DHT22;32477;51.474;5.696;2023-02-24T03:01:19;3.90;99.90
46732;DHT22;32477;51.474;5.696;2023-02-24T03:03:51;3.90;99.90
46732;DHT22;32477;51.474;5.696;2023-02-24T03:06:26;4.00;99.90
46732;DHT22;32477;51.474;5.696;2023-02-24T03:09:09;4.00;99.90
46732;DHT22;32477;51.474;5.696;2023-02-24T03:11:38;4.00;99.90
46732;DHT22;32477;51.474;5.696;2023-02-24T03:14:05;4.00;99.90
46732;DHT22;32477;51.474;5.696;2023-02-24T03:16:40;4.00;99.90
46732;DHT22;32477;51.474;5.696;2023-02-24T03:19:09;4.00;99.90
46732;DHT22;32477;51.474;5.696;2023-02-24T03:21:42;4.00;99.90
46732;DHT22;32477;51.474;5.696;2023-02-24T03:24:10;4.00;99.90
46732;DHT22;32477;51.474;5.696;2023-02-24T03:26:46;4.00;99.90
46732;DHT22;32477;51.474;5.696;2023-02-24T03:29:31;4.10;99.90
46732;DHT22;32477;51.474;5.696;2023-02-24T03:34:59;4.10;99.90
46732;DHT22;32477;51.474;5.696;2023-02-24T03:37:27;4.10;99.90
46732;DHT22;32477;51.474;5.696;2023-02-24T03:39:57;4.10;99.90
46732;DHT22;32477;51.474;5.696;2023-02-24T03:42:29;4.10;99.90
46732;DHT22;32477;51.474;5.696;2023-02-24T03:44:55;4.10;99.90
46732;DHT22;32477;51.474;5.696;2023-02-24T03:47:23;4.10;99.90
46732;DHT22;32477;51.474;5.696;2023-02-24T03:49:50;4.10;99.90
46732;DHT22;32477;51.474;5.696;2023-02-24T04:03:05;4.00;99.90
46732;DHT22;32477;51.474;5.696;2023-02-24T04:05:36;4.00;99.90
46732;DHT22;32477;51.474;5.696;2023-02-24T04:08:06;4.00;99.90
46732;DHT22;32477;51.474;5.696;2023-02-24T04:10:45;4.00;99.90
46732;DHT22;32477;51.474;5.696;2023-02-24T04:16:20;4.00;99.90
46732;DHT22;32477;51.474;5.696;2023-02-24T04:18:56;3.90;99.90
46732;DHT22;32477;51.474;5.696;2023-02-24T04:21:24;4.00;99.90
46732;DHT22;32477;51.474;5.696;2023-02-24T04:23:51;4.00;99.90
46732;DHT22;32477;51.474;5.696;2023-02-24T04:26:18;3.90;99.90
46732;DHT22;32477;51.474;5.696;2023-02-24T04:28:45;3.80;99.90
46732;DHT22;32477;51.474;5.696;2023-02-24T04:31:16;3.80;99.90
46732;DHT22;32477;51.474;5.696;2023-02-24T04:33:45;3.70;99.90
46732;DHT22;32477;51.474;5.696;2023-02-24T04:36:18;3.70;99.90
46732;DHT22;32477;51.474;5.696;2023-02-24T04:38:44;3.70;99.90
46732;DHT22;32477;51.474;5.696;2023-02-24T04:41:11;3.60;99.90
46732;DHT22;32477;51.474;5.696;2023-02-24T04:43:37;3.60;99.90
46732;DHT22;32477;51.474;5.696;2023-02-24T04:46:03;3.60;99.90
46732;DHT22;32477;51.474;5.696;2023-02-24T04:48:33;3.60;99.90
46732;DHT22;32477;51.474;5.696;2023-02-24T04:51:00;3.60;99.90
46732;DHT22;32477;51.474;5.696;2023-02-24T04:53:27;3.70;99.90
46732;DHT22;32477;51.474;5.696;2023-02-24T04:55:53;3.70;99.90
46732;DHT22;32477;51.474;5.696;2023-02-24T04:58:23;3.70;99.90
46732;DHT22;32477;51.474;5.696;2023-02-24T05:00:52;3.70;99.90
46732;DHT22;32477;51.474;5.696;2023-02-24T05:03:21;3.80;99.90
46732;DHT22;32477;51.474;5.696;2023-02-24T05:05:52;3.70;99.90
46732;DHT22;32477;51.474;5.696;2023-02-24T05:08:22;3.80;99.90
46732;DHT22;32477;51.474;5.696;2023-02-24T05:10:48;3.80;99.90
46732;DHT22;32477;51.474;5.696;2023-02-24T05:13:22;3.80;99.90
46732;DHT22;32477;51.474;5.696;2023-02-24T05:15:56;3.80;99.90
46732;DHT22;32477;51.474;5.696;2023-02-24T05:18:22;3.80;99.90
46732;DHT22;32477;51.474;5.696;2023-02-24T05:20:53;3.80;99.90
46732;DHT22;32477;51.474;5.696;2023-02-24T05:23:45;3.80;99.90
46732;DHT22;32477;51.474;5.696;2023-02-24T05:26:18;3.80;99.90
46732;DHT22;32477;51.474;5.696;2023-02-24T05:28:46;3.80;99.90
46732;DHT22;32477;51.474;5.696;2023-02-24T05:31:22;3.90;99.90
46732;DHT22;32477;51.474;5.696;2023-02-24T05:33:52;3.90;99.90
46732;DHT22;32477;51.474;5.696;2023-02-24T05:36:20;3.90;99.90
46732;DHT22;32477;51.474;5.696;2023-02-24T05:38:47;3.90;99.90
46732;DHT22;32477;51.474;5.696;2023-02-24T05:41:15;3.90;99.90
46732;DHT22;32477;51.474;5.696;2023-02-24T05:43:49;3.90;99.90
46732;DHT22;32477;51.474;5.696;2023-02-24T05:46:24;3.90;99.90
46732;DHT22;32477;51.474;5.696;2023-02-24T05:48:59;4.00;99.90
46732;DHT22;32477;51.474;5.696;2023-02-24T05:51:28;4.00;99.90
46732;DHT22;32477;51.474;5.696;2023-02-24T05:54:10;4.00;99.90
46732;DHT22;32477;51.474;5.696;2023-02-24T05:56:38;4.00;99.90
46732;DHT22;32477;51.474;5.696;2023-02-24T05:59:05;3.90;99.90
46732;DHT22;32477;51.474;5.696;2023-02-24T06:01:38;3.90;99.90
46732;DHT22;32477;51.474;5.696;2023-02-24T06:04:07;3.90;99.90
46732;DHT22;32477;51.474;5.696;2023-02-24T06:06:38;3.80;99.90
46732;DHT22;32477;51.474;5.696;2023-02-24T06:09:10;3.80;99.90
46732;DHT22;32477;51.474;5.696;2023-02-24T06:11:41;3.70;99.90
46732;DHT22;32477;51.474;5.696;2023-02-24T06:14:08;3.60;99.90
46732;DHT22;32477;51.474;5.696;2023-02-24T06:16:35;3.60;99.90
46732;DHT22;32477;51.474;5.696;2023-02-24T06:19:02;3.50;99.90
46732;DHT22;32477;51.474;5.696;2023-02-24T06:21:29;3.50;99.90
46732;DHT22;32477;51.474;5.696;2023-02-24T06:23:56;3.40;99.90
46732;DHT22;32477;51.474;5.696;2023-02-24T06:26:24;3.30;99.90
46732;DHT22;32477;51.474;5.696;2023-02-24T06:28:55;3.40;99.90
46732;DHT22;32477;51.474;5.696;2023-02-24T06:31:21;3.50;99.90
46732;DHT22;32477;51.474;5.696;2023-02-24T06:33:47;3.50;99.90
46732;DHT22;32477;51.474;5.696;2023-02-24T06:36:17;3.60;99.90
46732;DHT22;32477;51.474;5.696;2023-02-24T06:38:47;3.70;99.90
46732;DHT22;32477;51.474;5.696;2023-02-24T06:41:14;3.70;99.90
46732;DHT22;32477;51.474;5.696;2023-02-24T06:43:42;3.70;99.90
46732;DHT22;32477;51.474;5.696;2023-02-24T06:46:14;3.70;99.90
46732;DHT22;32477;51.474;5.696;2023-02-24T06:48:40;3.70;99.90
46732;DHT22;32477;51.474;5.696;2023-02-24T06:51:11;3.60;99.90
46732;DHT22;32477;51.474;5.696;2023-02-24T06:53:43;3.60;99.90
46732;DHT22;32477;51.474;5.696;2023-02-24T06:56:14;3.60;99.90
46732;DHT22;32477;51.474;5.696;2023-02-24T06:58:45;3.50;99.90
46732;DHT22;32477;51.474;5.696;2023-02-24T07:01:13;3.60;99.90
46732;DHT22;32477;51.474;5.696;2023-02-24T07:03:39;3.70;99.90
46732;DHT22;32477;51.474;5.696;2023-02-24T07:06:12;3.60;99.90
46732;DHT22;32477;51.474;5.696;2023-02-24T07:08:51;3.70;99.90
46732;DHT22;32477;51.474;5.696;2023-02-24T07:11:18;3.70;99.90
46732;DHT22;32477;51.474;5.696;2023-02-24T07:13:45;3.70;99.90
46732;DHT22;32477;51.474;5.696;2023-02-24T07:16:19;3.70;99.90
46732;DHT22;32477;51.474;5.696;2023-02-24T07:18:45;3.60;99.90
46732;DHT22;32477;51.474;5.696;2023-02-24T07:21:15;3.70;99.90
46732;DHT22;32477;51.474;5.696;2023-02-24T07:23:44;3.70;99.90
46732;DHT22;32477;51.474;5.696;2023-02-24T07:26:12;3.70;99.90
46732;DHT22;32477;51.474;5.696;2023-02-24T07:28:40;3.70;99.90
46732;DHT22;32477;51.474;5.696;2023-02-24T07:31:11;3.80;99.90
46732;DHT22;32477;51.474;5.696;2023-02-24T07:33:40;3.80;99.90
46732;DHT22;32477;51.474;5.696;2023-02-24T07:36:11;3.80;99.90
46732;DHT22;32477;51.474;5.696;2023-02-24T07:38:43;3.90;99.90
46732;DHT22;32477;51.474;5.696;2023-02-24T07:41:11;4.00;99.90
46732;DHT22;32477;51.474;5.696;2023-02-24T07:43:38;4.00;99.90
46732;DHT22;32477;51.474;5.696;2023-02-24T07:46:09;4.10;99.90
46732;DHT22;32477;51.474;5.696;2023-02-24T07:48:36;4.10;99.90
46732;DHT22;32477;51.474;5.696;2023-02-24T07:51:07;4.20;99.90
46732;DHT22;32477;51.474;5.696;2023-02-24T07:53:33;4.20;99.90
46732;DHT22;32477;51.474;5.696;2023-02-24T07:55:59;4.20;99.90
46732;DHT22;32477;51.474;5.696;2023-02-24T07:58:24;4.30;99.90
46732;DHT22;32477;51.474;5.696;2023-02-24T08:00:52;4.40;99.90
46732;DHT22;32477;51.474;5.696;2023-02-24T08:03:27;4.40;99.90
46732;DHT22;32477;51.474;5.696;2023-02-24T08:05:57;4.40;99.90
46732;DHT22;32477;51.474;5.696;2023-02-24T08:08:40;4.50;99.90
46732;DHT22;32477;51.474;5.696;2023-02-24T08:11:41;4.50;99.90
46732;DHT22;32477;51.474;5.696;2023-02-24T08:14:11;4.50;99.90
46732;DHT22;32477;51.474;5.696;2023-02-24T08:16:42;4.60;99.90
46732;DHT22;32477;51.474;5.696;2023-02-24T08:19:11;4.60;99.90
46732;DHT22;32477;51.474;5.696;2023-02-24T08:21:42;4.70;99.90
46732;DHT22;32477;51.474;5.696;2023-02-24T08:24:29;4.80;99.90
46732;DHT22;32477;51.474;5.696;2023-02-24T08:26:59;4.80;99.90
46732;DHT22;32477;51.474;5.696;2023-02-24T08:29:34;4.90;99.90
46732;DHT22;32477;51.474;5.696;2023-02-24T08:32:34;4.90;99.90
46732;DHT22;32477;51.474;5.696;2023-02-24T08:35:10;4.90;99.90
46732;DHT22;32477;51.474;5.696;2023-02-24T08:37:43;5.00;99.90
46732;DHT22;32477;51.474;5.696;2023-02-24T08:43:12;5.10;99.90
46732;DHT22;32477;51.474;5.696;2023-02-24T08:45:43;5.20;99.90
46732;DHT22;32477;51.474;5.696;2023-02-24T08:48:13;5.20;99.90
46732;DHT22;32477;51.474;5.696;2023-02-24T08:50:58;5.30;99.90
46732;DHT22;32477;51.474;5.696;2023-02-24T08:53:25;5.40;99.90
46732;DHT22;32477;51.474;5.696;2023-02-24T08:56:11;5.40;99.90
46732;DHT22;32477;51.474;5.696;2023-02-24T08:58:44;5.50;99.90
46732;DHT22;32477;51.474;5.696;2023-02-24T09:01:21;5.60;99.90
46732;DHT22;32477;51.474;5.696;2023-02-24T09:03:53;5.70;99.90
46732;DHT22;32477;51.474;5.696;2023-02-24T09:06:32;5.80;99.90
46732;DHT22;32477;51.474;5.696;2023-02-24T09:08:58;5.90;99.90
46732;DHT22;32477;51.474;5.696;2023-02-24T09:11:44;6.00;99.90
46732;DHT22;32477;51.474;5.696;2023-02-24T09:14:18;6.10;99.90
46732;DHT22;32477;51.474;5.696;2023-02-24T09:16:49;6.20;99.90
46732;DHT22;32477;51.474;5.696;2023-02-24T09:19:42;6.40;99.90
46732;DHT22;32477;51.474;5.696;2023-02-24T09:22:30;6.60;99.90
46732;DHT22;32477;51.474;5.696;2023-02-24T09:25:08;6.50;99.90
46732;DHT22;32477;51.474;5.696;2023-02-24T09:28:21;6.50;99.90
46732;DHT22;32477;51.474;5.696;2023-02-24T09:30:45;6.50;99.90
46732;DHT22;32477;51.474;5.696;2023-02-24T09:33:27;6.40;99.90
46732;DHT22;32477;51.474;5.696;2023-02-24T09:38:52;6.10;99.90
46732;DHT22;32477;51.474;5.696;2023-02-24T09:44:36;6.00;99.90
46732;DHT22;32477;51.474;5.696;2023-02-24T09:53:02;6.30;99.90
46732;DHT22;32477;51.474;5.696;2023-02-24T09:55:49;6.30;99.90
46732;DHT22;32477;51.474;5.696;2023-02-24T09:59:11;6.30;99.90
46732;DHT22;32477;51.474;5.696;2023-02-24T10:01:51;6.30;99.90
46732;DHT22;32477;51.474;5.696;2023-02-24T10:04:33;6.20;99.90
46732;DHT22;32477;51.474;5.696;2023-02-24T10:07:10;6.00;99.90
46732;DHT22;32477;51.474;5.696;2023-02-24T10:13:11;6.00;99.90
46732;DHT22;32477;51.474;5.696;2023-02-24T10:15:43;6.00;99.90
46732;DHT22;32477;51.474;5.696;2023-02-24T10:18:50;6.00;99.90
46732;DHT22;32477;51.474;5.696;2023-02-24T10:24:30;5.90;99.90
46732;DHT22;32477;51.474;5.696;2023-02-24T10:27:09;5.90;99.90
46732;DHT22;32477;51.474;5.696;2023-02-24T10:29:48;6.00;99.90
46732;DHT22;32477;51.474;5.696;2023-02-24T10:35:18;6.20;99.90
46732;DHT22;32477;51.474;5.696;2023-02-24T10:37:44;6.30;99.90
46732;DHT22;32477;51.474;5.696;2023-02-24T10:40:12;6.30;99.90
46732;DHT22;32477;51.474;5.696;2023-02-24T10:42:49;6.50;99.90
46732;DHT22;32477;51.474;5.696;2023-02-24T10:45:23;6.60;99.90
46732;DHT22;32477;51.474;5.696;2023-02-24T10:47:54;6.50;99.90
46732;DHT22;32477;51.474;5.696;2023-02-24T10:50:30;6.30;99.90
46732;DHT22;32477;51.474;5.696;2023-02-24T10:53:06;6.30;99.90
46732;DHT22;32477;51.474;5.696;2023-02-24T10:55:43;6.30;99.90
46732;DHT22;32477;51.474;5.696;2023-02-24T10:58:14;6.40;99.90
46732;DHT22;32477;51.474;5.696;2023-02-24T11:00:53;6.50;99.90
46732;DHT22;32477;51.474;5.696;2023-02-24T11:03:45;6.50;99.90
46732;DHT22;32477;51.474;5.696;2023-02-24T11:06:21;6.60;99.90
46732;DHT22;32477;51.474;5.696;2023-02-24T11:09:23;6.60;99.90
46732;DHT22;32477;51.474;5.696;2023-02-24T11:11:56;6.70;99.90
46732;DHT22;32477;51.474;5.696;2023-02-24T11:14:55;6.80;99.90
46732;DHT22;32477;51.474;5.696;2023-02-24T11:17:52;6.80;99.90
46732;DHT22;32477;51.474;5.696;2023-02-24T11:20:36;6.70;99.90
46732;DHT22;32477;51.474;5.696;2023-02-24T11:23:06;6.80;99.90
46732;DHT22;32477;51.474;5.696;2023-02-24T11:25:42;6.70;99.90
46732;DHT22;32477;51.474;5.696;2023-02-24T11:28:48;6.70;99.90
46732;DHT22;32477;51.474;5.696;2023-02-24T11:34:25;6.60;99.90
46732;DHT22;32477;51.474;5.696;2023-02-24T11:39:58;6.50;99.90
46732;DHT22;32477;51.474;5.696;2023-02-24T11:42:39;6.40;99.90
46732;DHT22;32477;51.474;5.696;2023-02-24T11:47:40;6.30;99.90
46732;DHT22;32477;51.474;5.696;2023-02-24T11:50:36;6.20;99.90
46732;DHT22;32477;51.474;5.696;2023-02-24T11:53:17;6.20;99.90
46732;DHT22;32477;51.474;5.696;2023-02-24T11:55:50;6.10;99.90
46732;DHT22;32477;51.474;5.696;2023-02-24T12:01:30;6.10;99.90
46732;DHT22;32477;51.474;5.696;2023-02-24T12:04:20;6.00;99.90
46732;DHT22;32477;51.474;5.696;2023-02-24T12:07:31;5.90;99.90
46732;DHT22;32477;51.474;5.696;2023-02-24T12:10:06;5.90;99.90
46732;DHT22;32477;51.474;5.696;2023-02-24T12:18:38;5.90;99.90
46732;DHT22;32477;51.474;5.696;2023-02-24T12:21:33;6.00;99.90
46732;DHT22;32477;51.474;5.696;2023-02-24T12:23:59;5.90;99.90
46732;DHT22;32477;51.474;5.696;2023-02-24T12:27:02;6.00;99.90
46732;DHT22;32477;51.474;5.696;2023-02-24T12:32:59;6.00;99.90
46732;DHT22;32477;51.474;5.696;2023-02-24T12:35:40;6.00;99.90
46732;DHT22;32477;51.474;5.696;2023-02-24T12:38:43;6.00;99.90
46732;DHT22;32477;51.474;5.696;2023-02-24T12:43:53;6.10;99.90
46732;DHT22;32477;51.474;5.696;2023-02-24T12:46:29;6.20;99.90
46732;DHT22;32477;51.474;5.696;2023-02-24T12:57:26;6.30;99.90
46732;DHT22;32477;51.474;5.696;2023-02-24T12:59:53;6.30;99.90
46732;DHT22;32477;51.474;5.696;2023-02-24T13:05:49;6.20;99.90
46732;DHT22;32477;51.474;5.696;2023-02-24T13:11:28;6.20;99.90
46732;DHT22;32477;51.474;5.696;2023-02-24T13:14:03;6.20;99.90
46732;DHT22;32477;51.474;5.696;2023-02-24T13:16:34;6.20;99.90
46732;DHT22;32477;51.474;5.696;2023-02-24T13:21:41;6.10;99.90
46732;DHT22;32477;51.474;5.696;2023-02-24T13:24:19;6.20;99.90
46732;DHT22;32477;51.474;5.696;2023-02-24T13:26:45;6.30;99.90
46732;DHT22;32477;51.474;5.696;2023-02-24T13:29:13;6.20;99.90
46732;DHT22;32477;51.474;5.696;2023-02-24T13:31:45;6.20;99.90
46732;DHT22;32477;51.474;5.696;2023-02-24T13:36:46;6.10;99.90
46732;DHT22;32477;51.474;5.696;2023-02-24T13:39:32;6.00;99.90
46732;DHT22;32477;51.474;5.696;2023-02-24T13:42:26;6.00;99.90
46732;DHT22;32477;51.474;5.696;2023-02-24T13:45:17;6.00;99.90
46732;DHT22;32477;51.474;5.696;2023-02-24T13:47:48;6.10;99.90
46732;DHT22;32477;51.474;5.696;2023-02-24T13:50:24;6.00;99.90
46732;DHT22;32477;51.474;5.696;2023-02-24T13:53:12;5.90;99.90
46732;DHT22;32477;51.474;5.696;2023-02-24T13:56:01;5.90;99.90
46732;DHT22;32477;51.474;5.696;2023-02-24T13:58:40;5.90;99.90
46732;DHT22;32477;51.474;5.696;2023-02-24T14:01:13;5.90;99.90
46732;DHT22;32477;51.474;5.696;2023-02-24T14:03:42;5.90;99.90
46732;DHT22;32477;51.474;5.696;2023-02-24T14:06:34;5.90;99.90
46732;DHT22;32477;51.474;5.696;2023-02-24T14:09:02;5.90;99.90
46732;DHT22;32477;51.474;5.696;2023-02-24T14:11:33;5.90;99.90
46732;DHT22;32477;51.474;5.696;2023-02-24T14:13:59;6.10;99.90
46732;DHT22;32477;51.474;5.696;2023-02-24T14:16:36;6.30;99.90
46732;DHT22;32477;51.474;5.696;2023-02-24T14:19:08;6.50;99.90
46732;DHT22;32477;51.474;5.696;2023-02-24T14:21:36;6.60;99.90
46732;DHT22;32477;51.474;5.696;2023-02-24T14:24:09;6.60;99.90
46732;DHT22;32477;51.474;5.696;2023-02-24T14:26:48;6.80;99.90
46732;DHT22;32477;51.474;5.696;2023-02-24T14:29:34;6.70;99.90
46732;DHT22;32477;51.474;5.696;2023-02-24T14:32:00;6.80;99.90
46732;DHT22;32477;51.474;5.696;2023-02-24T14:34:28;6.90;99.90
46732;DHT22;32477;51.474;5.696;2023-02-24T14:37:00;6.80;99.90
46732;DHT22;32477;51.474;5.696;2023-02-24T14:39:31;6.80;99.90
46732;DHT22;32477;51.474;5.696;2023-02-24T14:42:19;6.80;99.90
46732;DHT22;32477;51.474;5.696;2023-02-24T14:47:13;6.90;99.90
46732;DHT22;32477;51.474;5.696;2023-02-24T14:49:40;6.90;99.90
46732;DHT22;32477;51.474;5.696;2023-02-24T14:52:16;6.90;99.90
46732;DHT22;32477;51.474;5.696;2023-02-24T14:57:22;6.80;99.90
46732;DHT22;32477;51.474;5.696;2023-02-24T14:59:52;7.10;99.90
46732;DHT22;32477;51.474;5.696;2023-02-24T15:02:25;7.90;99.90
46732;DHT22;32477;51.474;5.696;2023-02-24T15:04:54;7.90;99.90
46732;DHT22;32477;51.474;5.696;2023-02-24T15:07:26;7.90;99.90
46732;DHT22;32477;51.474;5.696;2023-02-24T15:09:53;8.40;99.90
46732;DHT22;32477;51.474;5.696;2023-02-24T15:12:45;8.40;99.90
46732;DHT22;32477;51.474;5.696;2023-02-24T15:15:23;8.40;99.90
46732;DHT22;32477;51.474;5.696;2023-02-24T15:18:04;8.10;99.90
46732;DHT22;32477;51.474;5.696;2023-02-24T15:20:36;7.70;99.90
46732;DHT22;32477;51.474;5.696;2023-02-24T15:23:03;7.50;99.90
46732;DHT22;32477;51.474;5.696;2023-02-24T15:25:44;7.30;99.90
46732;DHT22;32477;51.474;5.696;2023-02-24T15:28:30;7.10;99.90
46732;DHT22;32477;51.474;5.696;2023-02-24T15:31:01;6.90;99.90
46732;DHT22;32477;51.474;5.696;2023-02-24T15:33:36;6.80;99.90
46732;DHT22;32477;51.474;5.696;2023-02-24T15:36:19;6.70;99.90
46732;DHT22;32477;51.474;5.696;2023-02-24T15:38:50;6.70;99.90
46732;DHT22;32477;51.474;5.696;2023-02-24T15:41:17;6.70;99.90
46732;DHT22;32477;51.474;5.696;2023-02-24T15:46:28;6.60;99.90
46732;DHT22;32477;51.474;5.696;2023-02-24T15:48:54;6.70;99.90
46732;DHT22;32477;51.474;5.696;2023-02-24T15:51:35;6.60;99.90
46732;DHT22;32477;51.474;5.696;2023-02-24T15:54:03;6.60;99.90
46732;DHT22;32477;51.474;5.696;2023-02-24T15:56:31;6.50;99.90
46732;DHT22;32477;51.474;5.696;2023-02-24T15:58:57;6.60;99.90
46732;DHT22;32477;51.474;5.696;2023-02-24T16:01:27;6.80;99.90
46732;DHT22;32477;51.474;5.696;2023-02-24T16:03:53;6.90;99.90
46732;DHT22;32477;51.474;5.696;2023-02-24T16:06:20;6.80;99.90
46732;DHT22;32477;51.474;5.696;2023-02-24T16:08:48;6.80;99.90
46732;DHT22;32477;51.474;5.696;2023-02-24T16:11:15;6.80;99.90
46732;DHT22;32477;51.474;5.696;2023-02-24T16:13:47;6.70;99.90
46732;DHT22;32477;51.474;5.696;2023-02-24T16:16:15;6.60;99.90
46732;DHT22;32477;51.474;5.696;2023-02-24T16:18:41;6.40;99.90
46732;DHT22;32477;51.474;5.696;2023-02-24T16:21:06;6.30;99.90
46732;DHT22;32477;51.474;5.696;2023-02-24T16:23:32;6.30;99.90
46732;DHT22;32477;51.474;5.696;2023-02-24T16:26:05;6.20;99.90
46732;DHT22;32477;51.474;5.696;2023-02-24T16:28:31;6.10;99.90
46732;DHT22;32477;51.474;5.696;2023-02-24T16:30:57;6.10;99.90
46732;DHT22;32477;51.474;5.696;2023-02-24T16:33:23;6.00;99.90
46732;DHT22;32477;51.474;5.696;2023-02-24T16:35:49;5.90;99.90
46732;DHT22;32477;51.474;5.696;2023-02-24T16:38:18;5.80;99.90
46732;DHT22;32477;51.474;5.696;2023-02-24T16:40:47;5.80;99.90
46732;DHT22;32477;51.474;5.696;2023-02-24T16:43:13;5.70;99.90
46732;DHT22;32477;51.474;5.696;2023-02-24T16:45:39;5.60;99.90
46732;DHT22;32477;51.474;5.696;2023-02-24T16:48:29;5.60;99.90
46732;DHT22;32477;51.474;5.696;2023-02-24T16:50:55;5.50;99.90
46732;DHT22;32477;51.474;5.696;2023-02-24T16:53:22;5.60;99.90
46732;DHT22;32477;51.474;5.696;2023-02-24T16:55:49;5.70;99.90
46732;DHT22;32477;51.474;5.696;2023-02-24T16:58:15;5.70;99.90
46732;DHT22;32477;51.474;5.696;2023-02-24T17:00:44;5.70;99.90
46732;DHT22;32477;51.474;5.696;2023-02-24T17:03:30;5.80;99.90
46732;DHT22;32477;51.474;5.696;2023-02-24T17:05:57;5.90;99.90
46732;DHT22;32477;51.474;5.696;2023-02-24T17:08:23;6.00;99.90
46732;DHT22;32477;51.474;5.696;2023-02-24T17:10:49;6.00;99.90
46732;DHT22;32477;51.474;5.696;2023-02-24T17:13:18;6.00;99.90
46732;DHT22;32477;51.474;5.696;2023-02-24T17:15:44;6.00;99.90
46732;DHT22;32477;51.474;5.696;2023-02-24T17:18:10;6.00;99.90
46732;DHT22;32477;51.474;5.696;2023-02-24T17:20:37;6.00;99.90
46732;DHT22;32477;51.474;5.696;2023-02-24T17:23:04;6.00;99.90
46732;DHT22;32477;51.474;5.696;2023-02-24T17:25:31;6.00;99.90
46732;DHT22;32477;51.474;5.696;2023-02-24T17:27:57;6.10;99.90
46732;DHT22;32477;51.474;5.696;2023-02-24T17:30:26;6.00;99.90
46732;DHT22;32477;51.474;5.696;2023-02-24T17:32:53;6.00;99.90
46732;DHT22;32477;51.474;5.696;2023-02-24T17:35:19;6.00;99.90
46732;DHT22;32477;51.474;5.696;2023-02-24T17:37:45;6.10;99.90
46732;DHT22;32477;51.474;5.696;2023-02-24T17:40:11;6.10;99.90
46732;DHT22;32477;51.474;5.696;2023-02-24T17:42:37;6.20;99.90
46732;DHT22;32477;51.474;5.696;2023-02-24T17:45:04;6.10;99.90
46732;DHT22;32477;51.474;5.696;2023-02-24T17:47:30;6.00;99.90
46732;DHT22;32477;51.474;5.696;2023-02-24T17:49:56;5.90;99.90
46732;DHT22;32477;51.474;5.696;2023-02-24T17:52:22;5.80;99.90
46732;DHT22;32477;51.474;5.696;2023-02-24T17:54:47;5.70;99.90
46732;DHT22;32477;51.474;5.696;2023-02-24T17:57:13;5.70;99.90
46732;DHT22;32477;51.474;5.696;2023-02-24T17:59:41;5.60;99.90
46732;DHT22;32477;51.474;5.696;2023-02-24T18:02:09;5.50;99.90
46732;DHT22;32477;51.474;5.696;2023-02-24T18:04:35;5.40;99.90
46732;DHT22;32477;51.474;5.696;2023-02-24T18:07:00;5.40;99.90
46732;DHT22;32477;51.474;5.696;2023-02-24T18:09:26;5.50;99.90
46732;DHT22;32477;51.474;5.696;2023-02-24T18:11:52;5.50;99.90
46732;DHT22;32477;51.474;5.696;2023-02-24T18:14:17;5.40;99.90